Time;durP1;ratioP1;P1;durP2;ratioP2;P2;SDS_P1;SDS_P2;PMS_P1;PMS_P2;Temp;Humidity;BMP_temperature;BMP_pressure;BME280_temperature;BME280_humidity;BME280_pressure;Samples;Min_cycle;Max_cycle;Signal;HPM_P1;HPM_P2
2023/08/25 00:01:17;;;;;;;6.35;4.82;;;21.50;99.90;;;;;;5060554;28;20498;-42
2023/08/25 00:03:43;;;;;;;4.90;4.50;;;21.50;99.90;;;;;;5056823;28;20024;-42
2023/08/25 00:06:09;;;;;;;5.43;4.93;;;21.50;99.90;;;;;;5062948;28;20028;-43
2023/08/25 00:08:36;;;;;;;5.20;4.80;;;21.50;99.90;;;;;;5052831;28;20133;-41
2023/08/25 00:11:02;;;;;;;5.50;5.00;;;21.50;99.90;;;;;;5062976;28;20024;-42
2023/08/25 00:13:27;;;;;;;5.88;5.38;;;21.50;99.90;;;;;;5053743;28;20077;-41
2023/08/25 00:15:53;;;;;;;5.78;5.28;;;21.50;99.90;;;;;;5064547;28;20403;-42
2023/08/25 00:18:18;;;;;;;5.15;4.75;;;21.50;99.90;;;;;;5051896;28;20016;-42
2023/08/25 00:20:44;;;;;;;4.85;4.30;;;21.60;99.90;;;;;;5065284;28;20028;-43
2023/08/25 00:23:10;;;;;;;7.28;5.70;;;21.60;99.90;;;;;;5050888;28;20063;-43
2023/08/25 00:25:36;;;;;;;5.72;4.93;;;21.50;99.90;;;;;;5065059;28;20111;-43
2023/08/25 00:28:01;;;;;;;5.53;5.03;;;21.30;99.90;;;;;;5053663;28;20013;-44
2023/08/25 00:30:27;;;;;;;5.47;4.97;;;21.20;99.90;;;;;;5062201;28;20032;-43
2023/08/25 00:32:52;;;;;;;6.22;5.63;;;21.20;99.90;;;;;;5056625;28;20028;-43
2023/08/25 00:35:18;;;;;;;5.93;5.32;;;21.20;99.90;;;;;;5060403;28;20472;-43
2023/08/25 00:37:44;;;;;;;5.60;5.10;;;21.20;99.90;;;;;;5058832;28;20017;-43
2023/08/25 00:40:10;;;;;;;5.47;4.97;;;21.20;99.90;;;;;;5056714;28;20091;-44
2023/08/25 00:42:36;;;;;;;5.72;5.22;;;21.20;99.90;;;;;;5061215;28;20427;-42
2023/08/25 00:45:05;;;;;;;5.53;5.03;;;21.20;99.90;;;;;;5053709;28;20024;-42
2023/08/25 00:47:33;;;;;;;6.00;5.50;;;21.20;99.90;;;;;;5063003;28;20021;-42
2023/08/25 00:49:59;;;;;;;6.05;5.18;;;21.30;99.90;;;;;;5052159;28;20035;-42
2023/08/25 00:52:26;;;;;;;5.60;5.10;;;21.20;99.90;;;;;;5062844;28;20029;-42
2023/08/25 00:54:54;;;;;;;5.45;4.95;;;21.20;99.90;;;;;;5052621;28;20044;-44
2023/08/25 00:57:31;;;;;;;4.60;4.07;;;21.20;99.90;;;;;;5062685;28;20548;-43
2023/08/25 00:59:57;;;;;;;7.03;4.95;;;21.20;99.90;;;;;;5052645;28;20028;-44
2023/08/25 01:02:23;;;;;;;6.20;5.60;;;21.20;99.90;;;;;;5064399;28;20425;-41
2023/08/25 01:04:49;;;;;;;5.18;4.78;;;21.10;99.90;;;;;;5050952;28;20030;-43
2023/08/25 01:07:14;;;;;;;5.65;5.07;;;21.10;99.90;;;;;;5063366;28;20028;-44
2023/08/25 01:09:40;;;;;;;6.07;5.57;;;21.10;99.90;;;;;;5051395;28;20400;-43
2023/08/25 01:12:17;;;;;;;6.60;5.45;;;21.10;99.90;;;;;;5062818;28;20059;-42
2023/08/25 01:14:49;;;;;;;6.05;5.45;;;21.10;99.90;;;;;;5052084;28;20029;-43
2023/08/25 01:17:24;;;;;;;5.35;4.85;;;21.20;99.90;;;;;;5043284;28;20032;-42
2023/08/25 01:19:57;;;;;;;6.10;5.50;;;21.10;99.90;;;;;;5043509;28;20032;-42
2023/08/25 01:22:47;;;;;;;5.80;5.25;;;21.20;99.90;;;;;;5055083;28;20056;-42
2023/08/25 01:25:13;;;;;;;5.88;5.22;;;21.20;99.90;;;;;;5054741;28;20034;-42
2023/08/25 01:27:39;;;;;;;5.45;4.95;;;21.20;99.90;;;;;;5044100;28;20032;-42
2023/08/25 01:30:08;;;;;;;6.03;5.18;;;21.20;99.90;;;;;;5053699;28;20132;-42
2023/08/25 01:32:37;;;;;;;5.57;5.07;;;21.20;99.90;;;;;;5045152;28;20027;-43
2023/08/25 01:35:06;;;;;;;5.63;5.07;;;21.20;99.90;;;;;;5051934;28;20090;-43
2023/08/25 01:37:38;;;;;;;6.13;5.63;;;21.20;99.90;;;;;;5046937;28;20029;-43
2023/08/25 01:40:10;;;;;;;5.95;5.18;;;21.10;99.90;;;;;;5049846;28;20047;-43
2023/08/25 01:42:37;;;;;;;;;;;21.20;99.90;;;;;;5048238;28;20025;-43
2023/08/25 01:45:05;;;;;;;6.00;5.50;;;21.20;99.90;;;;;;5048834;28;19908;-43
2023/08/25 01:47:33;;;;;;;6.45;5.85;;;21.10;99.90;;;;;;5049060;28;20117;-42
2023/08/25 01:50:02;;;;;;;6.50;5.93;;;21.10;99.90;;;;;;5051110;28;20036;-42
2023/08/25 01:52:29;;;;;;;6.25;5.75;;;21.20;99.90;;;;;;5056552;28;20246;-43
2023/08/25 01:54:54;;;;;;;6.50;5.90;;;21.20;99.90;;;;;;5049735;28;20059;-42
2023/08/25 01:57:20;;;;;;;6.47;5.97;;;21.20;99.90;;;;;;5057281;28;20820;-43
2023/08/25 01:59:46;;;;;;;6.78;6.28;;;21.30;99.90;;;;;;5049099;28;20024;-42
2023/08/25 02:02:11;;;;;;;6.75;6.15;;;21.30;99.90;;;;;;5057588;28;20017;-42
2023/08/25 02:04:37;;;;;;;6.72;6.13;;;21.30;99.90;;;;;;5048186;28;20082;-42
2023/08/25 02:07:02;;;;;;;7.07;6.47;;;21.40;99.90;;;;;;5058179;28;20021;-43
2023/08/25 02:09:28;;;;;;;7.50;6.82;;;21.40;99.90;;;;;;5047626;28;20071;-43
2023/08/25 02:11:56;;;;;;;7.22;6.63;;;21.40;99.90;;;;;;5059596;28;20032;-43
2023/08/25 02:14:22;;;;;;;6.90;6.22;;;21.40;99.90;;;;;;5046554;28;20033;-43
2023/08/25 02:16:47;;;;;;;7.40;6.70;;;21.40;99.90;;;;;;5058716;28;20086;-44
2023/08/25 02:19:13;;;;;;;7.15;6.55;;;21.50;99.90;;;;;;5046810;28;20071;-43
2023/08/25 02:21:38;;;;;;;7.32;6.68;;;21.50;99.90;;;;;;5053694;28;20029;-43
2023/08/25 02:24:04;;;;;;;7.35;6.60;;;21.50;99.90;;;;;;5046474;28;20021;-43
2023/08/25 02:26:30;;;;;;;7.70;7.03;;;21.50;99.90;;;;;;5054067;28;20051;-43
2023/08/25 02:28:55;;;;;;;8.02;7.22;;;21.50;99.90;;;;;;5052573;28;20052;-43
2023/08/25 02:31:21;;;;;;;7.68;7.07;;;21.50;99.90;;;;;;5050070;28;20091;-43
2023/08/25 02:33:46;;;;;;;8.23;7.53;;;21.50;99.90;;;;;;5055913;28;20107;-42
2023/08/25 02:36:12;;;;;;;9.05;8.25;;;21.60;99.90;;;;;;5047295;28;20032;-42
2023/08/25 02:38:38;;;;;;;7.70;6.53;;;21.50;99.90;;;;;;5058362;28;20611;-42
2023/08/25 02:41:03;;;;;;;7.53;6.82;;;21.60;99.90;;;;;;5047183;28;20044;-42
2023/08/25 02:43:29;;;;;;;8.60;7.80;;;21.50;99.90;;;;;;5057643;28;20017;-42
2023/08/25 02:45:59;;;;;;;8.77;8.00;;;21.50;99.90;;;;;;5047567;28;20025;-42
2023/08/25 02:48:24;;;;;;;8.90;8.10;;;21.50;99.90;;;;;;5058889;28;20013;-42
2023/08/25 02:50:50;;;;;;;8.85;8.05;;;21.50;99.90;;;;;;5046586;28;20029;-42
2023/08/25 02:53:15;;;;;;;9.27;8.27;;;21.50;99.90;;;;;;5058511;28;20115;-42
2023/08/25 02:55:41;;;;;;;8.93;8.05;;;21.50;99.90;;;;;;5046446;28;20035;-42
2023/08/25 02:58:06;;;;;;;8.20;7.40;;;21.60;99.90;;;;;;5055889;28;20052;-42
2023/08/25 03:00:32;;;;;;;10.32;8.60;;;21.50;99.90;;;;;;5048135;28;20116;-42
2023/08/25 03:02:58;;;;;;;8.82;7.88;;;21.60;99.90;;;;;;5054953;28;20317;-42
2023/08/25 03:05:24;;;;;;;7.95;7.28;;;21.60;99.90;;;;;;5049287;28;20033;-42
2023/08/25 03:07:56;;;;;;;8.18;7.30;;;21.60;99.90;;;;;;5052131;28;20036;-42
2023/08/25 03:10:21;;;;;;;;;;;21.60;99.90;;;;;;5050692;28;20048;-42
2023/08/25 03:12:50;;;;;;;7.20;6.60;;;21.60;99.90;;;;;;5050778;28;19908;-42
2023/08/25 03:15:16;;;;;;;7.43;6.60;;;21.60;99.90;;;;;;5053376;28;20028;-42
2023/08/25 03:17:42;;;;;;;8.40;7.63;;;21.70;99.90;;;;;;5047808;28;20025;-42
2023/08/25 03:20:07;;;;;;;8.52;7.72;;;21.60;99.90;;;;;;5056046;28;20025;-43
2023/08/25 03:22:33;;;;;;;8.73;8.02;;;21.70;99.90;;;;;;5053789;28;20063;-43
2023/08/25 03:24:59;;;;;;;8.85;7.95;;;21.70;99.90;;;;;;5053883;28;20029;-42
2023/08/25 03:27:24;;;;;;;9.02;8.13;;;21.70;99.90;;;;;;5065564;28;20047;-43
2023/08/25 03:29:50;;;;;;;9.07;8.27;;;21.70;99.90;;;;;;5054223;28;20037;-43
2023/08/25 03:32:16;;;;;;;8.88;8.07;;;21.70;99.90;;;;;;5064733;28;20398;-43
2023/08/25 03:34:42;;;;;;;8.75;7.95;;;21.70;99.90;;;;;;5053117;28;20036;-43
2023/08/25 03:37:07;;;;;;;9.23;8.32;;;21.70;99.90;;;;;;5065865;28;20020;-43
2023/08/25 03:39:33;;;;;;;9.35;8.55;;;21.70;99.90;;;;;;5053238;28;20025;-43
2023/08/25 03:41:59;;;;;;;9.18;8.35;;;21.70;99.90;;;;;;5064822;28;20024;-43
2023/08/25 03:44:25;;;;;;;9.00;8.30;;;21.70;99.90;;;;;;5056106;28;20035;-43
2023/08/25 03:46:53;;;;;;;8.93;8.02;;;21.70;99.90;;;;;;5061902;28;20021;-42
2023/08/25 03:49:19;;;;;;;9.05;8.20;;;21.70;99.90;;;;;;5057581;28;20029;-43
2023/08/25 03:51:44;;;;;;;9.18;8.27;;;21.70;99.90;;;;;;5060251;28;20033;-44
2023/08/25 03:54:11;;;;;;;9.23;8.43;;;21.70;99.90;;;;;;5060118;28;20489;-42
2023/08/25 03:56:40;;;;;;;9.70;8.38;;;21.70;99.90;;;;;;5057243;28;20806;-42
2023/08/25 03:59:06;;;;;;;9.20;8.40;;;21.70;99.90;;;;;;5062763;28;20802;-43
2023/08/25 04:01:31;;;;;;;9.73;8.82;;;21.70;99.90;;;;;;5054680;28;20735;-43
2023/08/25 04:03:57;;;;;;;10.20;8.98;;;21.70;99.90;;;;;;5063395;28;20566;-43
2023/08/25 04:06:22;;;;;;;10.02;9.13;;;21.70;99.90;;;;;;5053560;28;20032;-43
2023/08/25 04:08:48;;;;;;;10.50;9.60;;;21.70;99.90;;;;;;5063478;28;20024;-42
2023/08/25 04:11:13;;;;;;;10.65;9.25;;;21.70;99.90;;;;;;5051741;28;20147;-42
2023/08/25 04:13:48;;;;;;;11.48;10.18;;;21.70;99.90;;;;;;5064563;28;20426;-43
2023/08/25 04:16:14;;;;;;;10.30;9.30;;;21.70;99.90;;;;;;5051707;28;20021;-43
2023/08/25 04:18:39;;;;;;;9.82;8.90;;;21.80;99.90;;;;;;5065012;28;20024;-42
2023/08/25 04:21:08;;;;;;;10.35;9.18;;;21.70;99.90;;;;;;5050463;28;20039;-42
2023/08/25 04:23:36;;;;;;;9.25;8.48;;;21.70;99.90;;;;;;5049267;28;20044;-43
2023/08/25 04:26:01;;;;;;;10.23;9.25;;;21.80;99.90;;;;;;5055107;28;20099;-43
2023/08/25 04:28:39;;;;;;;10.38;9.38;;;21.80;99.90;;;;;;5045332;28;20590;-43
2023/08/25 04:31:05;;;;;;;10.18;9.18;;;21.70;99.90;;;;;;5054335;28;20028;-44
2023/08/25 04:33:30;;;;;;;10.32;9.38;;;21.80;99.90;;;;;;5046810;28;20028;-43
2023/08/25 04:35:56;;;;;;;11.23;9.75;;;21.70;99.90;;;;;;5051479;28;20070;-44
2023/08/25 04:38:21;;;;;;;11.82;10.73;;;21.70;99.90;;;;;;5050072;28;20025;-42
2023/08/25 04:40:47;;;;;;;10.90;9.63;;;21.80;99.90;;;;;;5049340;28;20036;-43
2023/08/25 04:43:12;;;;;;;9.38;8.57;;;21.80;99.90;;;;;;5051379;28;20033;-42
2023/08/25 04:45:38;;;;;;;11.80;9.90;;;21.70;99.90;;;;;;5046648;28;20021;-43
2023/08/25 04:48:04;;;;;;;10.15;9.15;;;21.70;99.90;;;;;;5054918;28;20130;-43
2023/08/25 04:50:30;;;;;;;9.90;9.00;;;21.70;99.90;;;;;;5045731;28;20028;-43
2023/08/25 04:52:55;;;;;;;10.85;9.82;;;21.70;99.90;;;;;;5056774;28;20411;-42
2023/08/25 04:55:24;;;;;;;10.50;9.60;;;21.70;99.90;;;;;;5044406;28;20112;-42
2023/08/25 04:57:49;;;;;;;11.38;10.27;;;21.70;99.90;;;;;;5054890;28;20047;-42
2023/08/25 05:00:18;;;;;;;10.38;9.32;;;21.70;99.90;;;;;;5049212;28;20024;-42
2023/08/25 05:02:45;;;;;;;11.40;10.30;;;21.70;99.90;;;;;;5051646;28;20090;-42
2023/08/25 05:05:11;;;;;;;11.88;10.77;;;21.70;99.90;;;;;;5062607;28;20032;-42
2023/08/25 05:07:38;;;;;;;12.45;11.20;;;21.70;99.90;;;;;;5051899;28;20099;-43
2023/08/25 05:10:03;;;;;;;12.15;10.95;;;21.80;99.90;;;;;;5062995;28;20093;-43
2023/08/25 05:12:29;;;;;;;12.73;10.65;;;21.80;99.90;;;;;;5053721;28;20033;-42
2023/08/25 05:14:58;;;;;;;11.88;10.25;;;21.80;99.90;;;;;;5062409;28;20025;-43
2023/08/25 05:17:27;;;;;;;12.80;10.35;;;21.80;99.90;;;;;;5054725;28;20044;-43
2023/08/25 05:19:55;;;;;;;11.18;10.07;;;21.80;99.90;;;;;;5060175;28;20477;-42
2023/08/25 05:22:21;;;;;;;10.90;9.88;;;21.80;99.90;;;;;;5056075;28;20471;-43
2023/08/25 05:24:53;;;;;;;12.50;11.30;;;21.80;99.90;;;;;;5057089;28;20510;-42
2023/08/25 05:27:18;;;;;;;12.07;10.93;;;21.90;99.90;;;;;;5059038;28;20590;-42
2023/08/25 05:29:44;;;;;;;12.48;10.73;;;21.80;99.90;;;;;;5055783;28;20545;-42
2023/08/25 05:32:10;;;;;;;12.63;11.38;;;21.90;99.90;;;;;;5060915;28;20024;-42
2023/08/25 05:34:36;;;;;;;11.82;10.65;;;21.90;99.90;;;;;;5053177;28;20025;-43
2023/08/25 05:37:08;;;;;;;12.23;11.02;;;21.90;99.90;;;;;;5061851;28;20029;-43
2023/08/25 05:39:33;;;;;;;11.43;10.32;;;22.00;99.90;;;;;;5051911;28;20020;-43
2023/08/25 05:41:59;;;;;;;11.45;10.35;;;21.90;99.90;;;;;;5062520;28;20028;-42
2023/08/25 05:44:24;;;;;;;10.90;9.90;;;22.00;99.90;;;;;;5052032;28;20029;-43
2023/08/25 05:46:51;;;;;;;10.88;9.77;;;22.00;99.90;;;;;;5062634;28;20547;-43
2023/08/25 05:49:16;;;;;;;9.90;9.00;;;22.00;99.90;;;;;;5050027;28;20033;-42
2023/08/25 05:51:42;;;;;;;10.82;9.82;;;22.00;99.90;;;;;;5063446;28;20029;-42
2023/08/25 05:54:08;;;;;;;11.25;9.90;;;22.10;99.90;;;;;;5050464;28;20013;-42
2023/08/25 05:56:33;;;;;;;11.10;10.10;;;22.10;99.90;;;;;;5063169;28;20064;-43
2023/08/25 05:59:00;;;;;;;11.45;10.35;;;22.10;99.90;;;;;;5053761;28;20021;-43
2023/08/25 06:01:25;;;;;;;10.88;9.82;;;22.10;99.90;;;;;;5060442;28;20020;-43
2023/08/25 06:03:51;;;;;;;12.07;10.95;;;22.20;99.90;;;;;;5056160;28;20029;-43
2023/08/25 06:06:17;;;;;;;11.13;10.00;;;22.20;99.90;;;;;;5057255;28;20035;-43
2023/08/25 06:08:42;;;;;;;11.75;10.65;;;22.20;99.90;;;;;;5058677;28;20021;-43
2023/08/25 06:11:08;;;;;;;11.70;10.50;;;22.30;99.90;;;;;;5054392;28;20048;-43
2023/08/25 06:13:34;;;;;;;12.32;11.13;;;22.30;99.90;;;;;;5060525;28;20029;-47
2023/08/25 06:15:59;;;;;;;12.02;10.85;;;22.30;99.90;;;;;;5052483;28;20041;-43
2023/08/25 06:18:25;;;;;;;10.75;9.75;;;22.30;99.90;;;;;;5061567;28;20686;-42
2023/08/25 06:21:12;;;;;;;11.30;10.18;;;22.30;99.90;;;;;;5051231;28;20032;-42
2023/08/25 06:23:37;;;;;;;12.48;11.27;;;22.40;99.90;;;;;;5048917;28;20798;-43
2023/08/25 06:26:03;;;;;;;11.90;10.70;;;22.40;99.90;;;;;;5054009;28;20104;-43
2023/08/25 06:28:28;;;;;;;10.45;9.40;;;22.40;99.90;;;;;;5043224;28;20381;-43
2023/08/25 06:30:54;;;;;;;10.27;9.27;;;22.40;99.90;;;;;;5055371;28;20064;-43
2023/08/25 06:33:20;;;;;;;10.90;9.80;;;22.30;99.90;;;;;;5042948;28;20020;-43
2023/08/25 06:35:45;;;;;;;11.38;10.38;;;22.30;99.90;;;;;;5058162;28;20392;-43
2023/08/25 06:38:11;;;;;;;11.50;10.40;;;22.30;99.90;;;;;;5046504;28;20025;-43
2023/08/25 06:40:36;;;;;;;11.60;10.50;;;22.30;99.90;;;;;;5058975;28;20024;-43
2023/08/25 06:43:03;;;;;;;11.57;10.57;;;22.20;99.90;;;;;;5046963;28;20495;-43
2023/08/25 06:45:30;;;;;;;11.98;10.80;;;22.20;99.90;;;;;;5055626;28;20480;-43
2023/08/25 06:47:57;;;;;;;11.93;10.73;;;22.30;99.90;;;;;;5049901;28;20049;-43
2023/08/25 06:50:25;;;;;;;13.68;11.80;;;22.20;99.90;;;;;;5052107;28;20537;-43
2023/08/25 06:52:54;;;;;;;12.32;11.18;;;22.20;99.90;;;;;;5052723;28;20021;-43
2023/08/25 06:55:19;;;;;;;13.15;11.85;;;22.20;99.90;;;;;;5051159;28;20073;-44
2023/08/25 06:57:46;;;;;;;14.38;12.88;;;22.20;99.90;;;;;;5057539;28;20041;-44
2023/08/25 07:00:13;;;;;;;13.82;12.43;;;22.20;99.90;;;;;;5063249;28;20067;-44
2023/08/25 07:02:40;;;;;;;15.70;13.57;;;22.20;99.90;;;;;;5056196;28;20025;-44
2023/08/25 07:05:07;;;;;;;13.27;11.88;;;22.30;99.90;;;;;;5064774;28;20040;-44
2023/08/25 07:07:33;;;;;;;13.02;11.73;;;22.30;99.90;;;;;;5055121;28;20029;-43
2023/08/25 07:09:59;;;;;;;12.82;11.52;;;22.30;99.90;;;;;;5063425;28;20601;-43
2023/08/25 07:12:34;;;;;;;12.38;11.18;;;22.30;99.90;;;;;;5054488;28;20025;-43
2023/08/25 07:15:00;;;;;;;11.75;10.35;;;22.40;99.90;;;;;;5064821;28;20100;-43
2023/08/25 07:17:26;;;;;;;12.55;11.20;;;22.40;99.90;;;;;;5053021;28;20020;-43
2023/08/25 07:19:51;;;;;;;12.45;11.15;;;22.40;99.90;;;;;;5066459;28;20040;-43
2023/08/25 07:22:17;;;;;;;10.80;9.73;;;22.40;99.90;;;;;;5054238;28;20724;-43
2023/08/25 07:24:42;;;;;;;12.15;10.85;;;22.40;99.90;;;;;;5064773;28;20042;-43
2023/08/25 07:27:09;;;;;;;12.88;10.82;;;22.40;99.90;;;;;;5054208;28;20244;-43
2023/08/25 07:29:37;;;;;;;13.00;11.50;;;22.30;99.90;;;;;;5064784;28;20020;-43
2023/08/25 07:32:03;;;;;;;12.38;11.00;;;22.30;99.90;;;;;;5055035;28;20586;-43
2023/08/25 07:34:29;;;;;;;11.93;10.65;;;22.30;99.90;;;;;;5062959;28;20051;-44
2023/08/25 07:36:56;;;;;;;11.98;10.73;;;22.30;99.90;;;;;;5057815;28;20485;-43
2023/08/25 07:39:21;;;;;;;13.23;11.82;;;22.30;99.90;;;;;;5058875;28;20021;-43
2023/08/25 07:41:47;;;;;;;14.13;12.73;;;22.30;99.90;;;;;;5061561;28;20023;-43
2023/08/25 07:44:15;;;;;;;13.82;12.43;;;22.30;99.90;;;;;;5057513;28;20035;-43
2023/08/25 07:46:41;;;;;;;12.45;11.15;;;22.30;99.90;;;;;;5061472;28;20016;-44
2023/08/25 07:49:13;;;;;;;14.57;13.07;;;22.30;99.90;;;;;;5054221;28;20032;-43
2023/08/25 07:51:38;;;;;;;15.43;13.85;;;22.30;99.90;;;;;;5063509;28;20029;-44
2023/08/25 07:54:05;;;;;;;14.38;12.85;;;22.30;99.90;;;;;;5053656;28;20476;-43
2023/08/25 07:56:30;;;;;;;14.93;13.32;;;22.30;99.90;;;;;;5063637;28;20070;-42
2023/08/25 07:58:56;;;;;;;12.95;10.95;;;22.30;99.90;;;;;;5053805;28;20616;-42
2023/08/25 08:01:22;;;;;;;11.40;10.23;;;22.30;99.90;;;;;;5065159;28;20051;-43
2023/08/25 08:03:50;;;;;;;12.40;11.10;;;22.20;99.90;;;;;;5051964;28;20473;-42
2023/08/25 08:06:16;;;;;;;12.02;10.85;;;22.20;99.90;;;;;;5064119;28;20029;-42
2023/08/25 08:08:43;;;;;;;12.27;10.98;;;22.20;99.90;;;;;;5052159;28;20036;-43
2023/08/25 08:11:09;;;;;;;11.73;10.15;;;22.20;99.90;;;;;;5064789;28;20118;-43
2023/08/25 08:13:35;;;;;;;11.20;9.82;;;22.20;99.90;;;;;;5053462;28;20393;-43
2023/08/25 08:16:00;;;;;;;13.00;11.02;;;22.20;99.90;;;;;;5062490;28;20043;-43
2023/08/25 08:18:26;;;;;;;11.27;10.18;;;22.20;99.90;;;;;;5056487;28;20052;-43
2023/08/25 08:20:52;;;;;;;12.02;10.75;;;22.20;99.90;;;;;;5059734;28;20021;-44
2023/08/25 08:23:17;;;;;;;9.88;8.98;;;22.20;99.90;;;;;;5058630;28;20077;-43
2023/08/25 08:25:43;;;;;;;10.35;8.77;;;22.10;99.90;;;;;;5052056;28;20104;-43
2023/08/25 08:28:09;;;;;;;12.88;9.27;;;22.10;99.90;;;;;;5046478;28;20036;-44
2023/08/25 08:30:37;;;;;;;9.63;8.73;;;22.00;99.90;;;;;;5054124;28;20041;-43
2023/08/25 08:33:05;;;;;;;9.43;8.52;;;21.90;99.90;;;;;;5045904;28;20424;-43
2023/08/25 08:35:37;;;;;;;12.55;10.15;;;21.80;99.90;;;;;;5055009;28;20028;-43
2023/08/25 08:38:03;;;;;;;;;;;21.80;99.90;;;;;;5046033;28;20029;-43
2023/08/25 08:40:31;;;;;;;9.65;8.65;;;21.70;99.90;;;;;;5055722;28;20386;-43
2023/08/25 08:43:02;;;;;;;9.45;8.55;;;21.70;99.90;;;;;;5044474;28;20158;-43
2023/08/25 08:45:36;;;;;;;11.07;9.90;;;21.70;99.90;;;;;;5055474;28;20030;-44
2023/08/25 08:48:07;;;;;;;10.80;9.70;;;21.70;99.90;;;;;;5043681;28;20025;-44
2023/08/25 08:50:33;;;;;;;10.45;9.32;;;21.80;99.90;;;;;;5052097;28;20034;-43
2023/08/25 08:53:00;;;;;;;11.70;10.50;;;21.90;99.90;;;;;;5065019;28;20146;-42
2023/08/25 08:55:26;;;;;;;10.02;9.13;;;21.90;99.90;;;;;;5050938;28;20087;-43
2023/08/25 08:57:52;;;;;;;10.40;9.40;;;22.00;99.90;;;;;;5063662;28;20512;-43
2023/08/25 09:00:21;;;;;;;10.32;9.40;;;22.00;99.90;;;;;;5052009;28;20065;-42
2023/08/25 09:02:53;;;;;;;10.80;9.80;;;21.90;99.90;;;;;;5063009;28;20039;-42
2023/08/25 09:05:21;;;;;;;11.65;10.55;;;21.90;99.90;;;;;;5053100;28;20033;-42
2023/08/25 09:07:52;;;;;;;10.38;9.38;;;22.00;99.90;;;;;;5062354;28;20025;-43
2023/08/25 09:10:25;;;;;;;9.95;9.05;;;22.00;99.90;;;;;;5053530;28;20530;-43
2023/08/25 09:12:53;;;;;;;10.35;9.35;;;21.90;99.90;;;;;;5061672;28;20025;-42
2023/08/25 09:15:30;;;;;;;11.98;10.02;;;21.90;99.90;;;;;;5055074;28;20036;-42
2023/08/25 09:18:01;;;;;;;11.07;9.98;;;21.90;99.90;;;;;;5060142;28;20051;-42
2023/08/25 09:20:28;;;;;;;10.73;9.70;;;21.80;99.90;;;;;;5056093;28;20025;-42
2023/08/25 09:22:57;;;;;;;10.65;9.63;;;21.80;99.90;;;;;;5051819;28;20025;-42
2023/08/25 09:25:24;;;;;;;11.25;10.20;;;21.90;99.90;;;;;;5048210;28;20031;-43
2023/08/25 09:28:01;;;;;;;10.55;9.55;;;21.80;99.90;;;;;;5050503;28;20565;-43
2023/08/25 09:30:46;;;;;;;10.50;9.57;;;21.80;99.90;;;;;;5047515;28;20029;-44
2023/08/25 09:33:15;;;;;;;11.20;10.15;;;21.90;99.90;;;;;;5048615;28;20166;-43
2023/08/25 09:35:41;;;;;;;9.35;8.50;;;21.80;99.90;;;;;;5048695;28;20024;-43
2023/08/25 09:38:19;;;;;;;9.93;8.88;;;21.90;99.90;;;;;;5049494;28;20040;-44
2023/08/25 09:40:46;;;;;;;10.77;9.75;;;21.80;99.90;;;;;;5047345;28;20036;-43
2023/08/25 09:43:14;;;;;;;9.93;8.95;;;21.80;99.90;;;;;;5051294;28;20543;-43
2023/08/25 09:45:40;;;;;;;8.15;7.45;;;21.70;99.90;;;;;;5044711;28;20029;-44
2023/08/25 09:48:13;;;;;;;9.70;8.80;;;21.70;99.90;;;;;;5053203;28;20074;-43
2023/08/25 09:50:41;;;;;;;8.88;8.07;;;21.70;99.90;;;;;;5044200;28;20060;-42
2023/08/25 09:53:08;;;;;;;7.80;7.10;;;21.60;99.90;;;;;;5053656;28;20116;-43
2023/08/25 09:55:38;;;;;;;6.95;6.18;;;21.60;99.90;;;;;;5044364;28;20060;-43
2023/08/25 09:58:05;;;;;;;6.57;5.97;;;21.60;99.90;;;;;;5054357;28;20053;-43
2023/08/25 10:00:35;;;;;;;6.07;5.57;;;21.60;99.90;;;;;;5043262;28;20108;-44
2023/08/25 10:03:03;;;;;;;5.28;4.78;;;21.60;99.90;;;;;;5053973;28;20057;-43
2023/08/25 10:05:32;;;;;;;6.55;5.78;;;21.60;99.90;;;;;;5043310;28;20017;-43
2023/08/25 10:07:59;;;;;;;5.38;4.97;;;21.60;99.90;;;;;;5055464;28;20030;-43
2023/08/25 10:10:25;;;;;;;5.20;4.80;;;21.60;99.90;;;;;;5046501;28;20037;-43
2023/08/25 10:12:53;;;;;;;4.90;4.50;;;21.70;99.90;;;;;;5059012;28;20024;-43
2023/08/25 10:15:20;;;;;;;5.38;4.78;;;21.70;99.90;;;;;;5046572;28;20188;-43
2023/08/25 10:17:49;;;;;;;5.35;4.93;;;21.80;99.90;;;;;;5058388;28;20107;-44
2023/08/25 10:20:17;;;;;;;4.57;4.18;;;21.80;99.90;;;;;;5047330;28;20028;-44
2023/08/25 10:23:08;;;;;;;5.40;4.90;;;21.80;99.90;;;;;;5050909;28;20480;-43
2023/08/25 10:25:32;;;;;;;4.88;4.38;;;21.80;99.90;;;;;;5047022;28;20044;-43
2023/08/25 10:28:00;;;;;;;5.18;4.70;;;21.90;99.90;;;;;;5050470;28;20021;-44
2023/08/25 10:30:27;;;;;;;4.00;3.70;;;22.10;99.90;;;;;;5064528;28;20033;-43
2023/08/25 10:33:04;;;;;;;4.60;4.10;;;22.30;99.90;;;;;;5059326;28;20021;-43
2023/08/25 10:35:40;;;;;;;3.75;3.45;;;22.40;99.90;;;;;;5063099;28;20115;-43
2023/08/25 10:38:23;;;;;;;3.47;3.25;;;22.50;99.90;;;;;;5058268;28;20028;-42
2023/08/25 10:41:09;;;;;;;3.28;3.05;;;22.60;99.90;;;;;;5063744;28;20029;-44
2023/08/25 10:43:37;;;;;;;4.45;4.05;;;22.70;99.90;;;;;;5056345;28;20546;-43
2023/08/25 10:46:09;;;;;;;4.57;3.83;;;22.80;99.90;;;;;;5065442;28;20036;-44
2023/08/25 10:48:37;;;;;;;4.80;4.20;;;22.90;99.90;;;;;;5056897;28;20575;-44
2023/08/25 10:51:11;;;;;;;4.70;4.30;;;23.00;99.90;;;;;;5063683;28;20048;-43
2023/08/25 10:53:44;;;;;;;4.60;4.20;;;23.10;99.90;;;;;;5059109;28;20021;-43
2023/08/25 10:56:20;;;;;;;4.55;4.25;;;23.20;99.90;;;;;;5062064;28;20044;-43
2023/08/25 10:58:57;;;;;;;4.05;3.75;;;23.30;99.90;;;;;;5059136;28;20044;-43
2023/08/25 11:01:38;;;;;;;4.35;4.05;;;23.40;99.90;;;;;;5063523;28;20027;-43
2023/08/25 11:04:07;;;;;;;4.20;3.90;;;23.40;99.90;;;;;;5057420;28;20075;-43
2023/08/25 11:06:40;;;;;;;4.13;3.50;;;23.50;99.90;;;;;;5063657;28;20219;-44
2023/08/25 11:09:30;;;;;;;4.18;3.42;;;23.50;99.90;;;;;;5057747;28;20048;-44
2023/08/25 11:12:00;;;;;;;3.78;3.33;;;23.50;99.90;;;;;;5064814;28;20840;-43
2023/08/25 11:14:30;;;;;;;3.42;3.20;;;23.60;99.90;;;;;;5057598;28;20032;-43
2023/08/25 11:17:00;;;;;;;3.15;2.85;;;23.60;99.90;;;;;;5062342;28;20025;-43
2023/08/25 11:19:26;;;;;;;2.92;2.72;;;23.60;99.90;;;;;;5058365;28;20748;-43
2023/08/25 11:21:57;;;;;;;2.50;2.30;;;23.70;99.90;;;;;;5061248;28;20017;-43
2023/08/25 11:24:23;;;;;;;2.92;2.72;;;23.60;99.90;;;;;;5052723;28;20366;-44
2023/08/25 11:26:49;;;;;;;3.00;2.80;;;23.40;99.90;;;;;;5052643;28;20052;-43
2023/08/25 11:29:17;;;;;;;4.13;3.83;;;23.30;99.90;;;;;;5048340;28;20052;-42
2023/08/25 11:31:44;;;;;;;3.85;3.55;;;23.20;99.90;;;;;;5053861;28;20511;-43
2023/08/25 11:34:10;;;;;;;3.85;3.55;;;23.20;99.90;;;;;;5046228;28;20508;-44
2023/08/25 11:36:36;;;;;;;4.90;4.50;;;23.10;99.90;;;;;;5056492;28;20029;-44
2023/08/25 11:39:02;;;;;;;4.60;4.20;;;23.10;99.90;;;;;;5045458;28;20025;-45
2023/08/25 11:41:28;;;;;;;4.63;4.22;;;23.20;99.90;;;;;;5056533;28;20023;-44
2023/08/25 11:43:55;;;;;;;4.15;3.83;;;23.30;99.90;;;;;;5044820;28;20074;-44
2023/08/25 11:46:21;;;;;;;4.40;4.00;;;23.40;99.90;;;;;;5045178;28;20029;-43
2023/08/25 11:48:55;;;;;;;4.00;3.70;;;23.40;99.90;;;;;;5045398;28;20480;-43
2023/08/25 11:51:20;;;;;;;4.80;4.30;;;23.50;99.90;;;;;;5050533;28;20036;-43
2023/08/25 11:53:46;;;;;;;4.03;3.72;;;23.50;99.90;;;;;;5065375;28;20517;-44
2023/08/25 11:56:16;;;;;;;4.60;4.20;;;23.50;99.90;;;;;;5052592;28;20025;-44
2023/08/25 11:58:42;;;;;;;4.35;4.03;;;23.50;99.90;;;;;;5044848;28;20032;-44
2023/08/25 12:01:10;;;;;;;4.50;4.10;;;23.40;99.90;;;;;;5054720;28;20024;-44
2023/08/25 12:03:42;;;;;;;4.13;3.83;;;23.40;99.90;;;;;;5046679;28;20598;-44
2023/08/25 12:06:11;;;;;;;4.78;4.45;;;23.30;99.90;;;;;;5052549;28;20024;-44
2023/08/25 12:08:39;;;;;;;4.53;4.10;;;23.30;99.90;;;;;;5048202;28;20033;-44
2023/08/25 12:11:10;;;;;;;5.00;4.60;;;23.20;99.90;;;;;;5050824;28;20045;-43
2023/08/25 12:13:41;;;;;;;4.60;4.30;;;23.10;99.90;;;;;;5049250;28;20052;-45
2023/08/25 12:16:06;;;;;;;5.25;4.85;;;23.10;99.90;;;;;;5050395;28;20071;-43
2023/08/25 12:18:36;;;;;;;7.00;6.40;;;23.00;99.90;;;;;;5051488;28;20108;-44
2023/08/25 12:21:06;;;;;;;6.20;5.70;;;22.90;99.90;;;;;;5047452;28;20028;-43
2023/08/25 12:23:37;;;;;;;6.32;5.82;;;22.90;99.90;;;;;;5064036;28;20031;-44
2023/08/25 12:26:04;;;;;;;5.30;4.90;;;22.90;99.90;;;;;;5061266;28;20032;-44
2023/08/25 12:28:31;;;;;;;7.30;6.70;;;22.90;99.90;;;;;;5055034;28;20027;-44
2023/08/25 12:31:00;;;;;;;7.43;6.82;;;23.00;99.90;;;;;;5062478;28;20029;-44
2023/08/25 12:33:29;;;;;;;5.38;4.88;;;23.00;99.90;;;;;;5051037;28;20048;-44
2023/08/25 12:35:57;;;;;;;5.28;4.88;;;23.10;99.90;;;;;;5062816;28;20403;-43
2023/08/25 12:38:23;;;;;;;6.78;6.18;;;23.20;99.90;;;;;;5053560;28;20036;-44
2023/08/25 12:40:49;;;;;;;6.10;5.60;;;23.30;99.90;;;;;;5063386;28;20051;-44
2023/08/25 12:43:14;;;;;;;5.20;4.78;;;23.40;99.90;;;;;;5051182;28;20364;-44